Time;durP1;ratioP1;P1;durP2;ratioP2;P2;SDS_P1;SDS_P2;PMS_P1;PMS_P2;Temp;Humidity;BMP_temperature;BMP_pressure;BME280_temperature;BME280_humidity;BME280_pressure;Samples;Min_cycle;Max_cycle;Signal;HPM_P1;HPM_P2
2022/08/22 00:00:11;;;;;;;34.07;5.80;;;20.70;99.90;;;;;;4994659;28;20215;-70
2022/08/22 00:02:47;;;;;;;21.17;5.73;;;20.70;99.90;;;;;;4994574;28;20187;-70
2022/08/22 00:05:27;;;;;;;24.37;5.57;;;20.70;99.90;;;;;;4994342;28;20645;-69
2022/08/22 00:08:03;;;;;;;27.03;5.63;;;20.70;99.90;;;;;;4994635;28;20642;-69
2022/08/22 00:10:43;;;;;;;26.50;5.87;;;20.70;99.90;;;;;;4992363;28;20709;-69
2022/08/22 00:13:14;;;;;;;32.43;6.53;;;20.70;99.90;;;;;;4993450;28;20236;-69
2022/08/22 00:15:46;;;;;;;24.20;5.83;;;20.70;99.90;;;;;;4994996;28;20851;-69
2022/08/22 00:18:19;;;;;;;28.70;5.87;;;20.70;99.90;;;;;;4994201;28;20192;-69
2022/08/22 00:20:58;;;;;;;28.63;6.03;;;20.70;99.90;;;;;;4994221;28;20187;-70
2022/08/22 00:23:30;;;;;;;28.40;5.57;;;20.70;99.90;;;;;;4993346;28;20648;-69
2022/08/22 00:26:03;;;;;;;35.13;5.73;;;20.60;99.90;;;;;;4990523;28;20325;-69
2022/08/22 00:28:34;;;;;;;23.20;5.77;;;20.60;99.90;;;;;;4994483;28;20669;-69
2022/08/22 00:31:09;;;;;;;25.07;5.70;;;20.50;99.90;;;;;;4993917;28;20279;-71
2022/08/22 00:33:42;;;;;;;30.97;5.70;;;20.50;99.90;;;;;;4994355;28;20690;-69
2022/08/22 00:36:18;;;;;;;26.03;6.07;;;20.50;99.90;;;;;;4993996;28;20189;-70
2022/08/22 00:38:52;;;;;;;32.87;5.77;;;20.50;99.90;;;;;;4992896;28;20570;-71
2022/08/22 00:41:40;;;;;;;28.77;6.20;;;20.40;99.90;;;;;;4993744;28;20282;-69
2022/08/22 00:44:42;;;;;;;23.63;5.63;;;20.50;99.90;;;;;;4993789;28;20197;-70
2022/08/22 00:47:32;;;;;;;26.93;5.43;;;20.40;99.90;;;;;;4991025;28;20214;-69
2022/08/22 00:50:41;;;;;;;26.40;5.50;;;20.40;99.90;;;;;;4988286;28;20576;-70
2022/08/22 00:53:34;;;;;;;26.37;6.40;;;20.40;99.90;;;;;;4974768;28;20293;-69
2022/08/22 00:56:35;;;;;;;20.80;5.40;;;20.40;99.90;;;;;;4993189;28;20817;-69
2022/08/22 00:59:16;;;;;;;25.17;5.60;;;20.30;99.90;;;;;;4990017;28;20209;-68
2022/08/22 01:01:54;;;;;;;27.87;5.07;;;20.40;99.90;;;;;;4991466;28;20626;-69
2022/08/22 01:04:49;;;;;;;32.80;6.47;;;20.40;99.90;;;;;;4990606;28;20313;-70
2022/08/22 01:07:38;;;;;;;23.17;6.07;;;20.30;99.90;;;;;;4992984;28;20242;-70
2022/08/22 01:10:23;;;;;;;25.20;5.93;;;20.30;99.90;;;;;;4992826;28;20328;-69
2022/08/22 01:13:09;;;;;;;25.50;5.43;;;20.30;99.90;;;;;;4993188;28;20284;-71
2022/08/22 01:15:38;;;;;;;30.23;5.63;;;20.30;99.90;;;;;;4993386;28;20939;-70
2022/08/22 01:18:49;;;;;;;31.43;5.70;;;20.30;99.90;;;;;;4990760;28;20211;-70
2022/08/22 01:21:49;;;;;;;29.70;5.93;;;20.20;99.90;;;;;;4980463;28;20600;-70
2022/08/22 01:28:10;;;;;;;23.30;4.93;;;20.20;99.90;;;;;;4972956;28;20207;-71
2022/08/22 01:31:12;;;;;;;20.50;5.90;;;20.20;99.90;;;;;;4965978;28;20319;-70
2022/08/22 01:34:33;;;;;;;23.00;6.23;;;20.10;99.90;;;;;;4990349;28;20686;-68
2022/08/22 01:37:33;;;;;;;22.87;5.13;;;20.10;99.90;;;;;;4979392;28;20698;-68
2022/08/22 01:40:33;;;;;;;27.93;5.83;;;20.00;99.90;;;;;;4990176;28;20670;-69
2022/08/22 01:43:09;;;;;;;22.20;5.53;;;20.00;99.90;;;;;;4950950;28;20209;-69
2022/08/22 01:46:00;;;;;;;25.63;6.07;;;19.90;99.90;;;;;;4992456;28;20230;-68
2022/08/22 01:48:35;;;;;;;20.80;5.73;;;19.90;99.90;;;;;;4993039;28;20225;-70
2022/08/22 01:51:15;;;;;;;24.30;5.37;;;19.90;99.90;;;;;;4992274;28;20306;-70
2022/08/22 01:53:53;;;;;;;21.50;5.93;;;19.90;99.90;;;;;;4992989;28;20234;-70
2022/08/22 01:56:21;;;;;;;20.70;5.40;;;19.90;99.90;;;;;;4992643;28;20279;-69
2022/08/22 01:58:57;;;;;;;17.57;4.67;;;19.90;99.90;;;;;;4989254;28;20294;-70
2022/08/22 02:01:37;;;;;;;18.87;4.77;;;19.90;99.90;;;;;;4986337;28;20218;-69
2022/08/22 02:04:09;;;;;;;20.03;5.27;;;19.90;99.90;;;;;;4989988;28;20250;-70
2022/08/22 02:06:44;;;;;;;21.87;5.27;;;20.00;99.90;;;;;;4992882;28;20283;-70
2022/08/22 02:09:26;;;;;;;15.90;4.83;;;20.00;99.90;;;;;;4992634;28;20282;-71
2022/08/22 02:11:56;;;;;;;19.17;5.73;;;20.00;99.90;;;;;;4991583;28;20302;-69
2022/08/22 02:14:37;;;;;;;32.43;5.93;;;19.90;99.90;;;;;;4996442;28;20284;-69
2022/08/22 02:17:17;;;;;;;21.83;5.20;;;19.90;99.90;;;;;;4992772;28;20195;-69
2022/08/22 02:19:55;;;;;;;19.93;5.47;;;19.90;99.90;;;;;;4992357;28;20278;-69
2022/08/22 02:22:32;;;;;;;24.40;5.77;;;19.90;99.90;;;;;;4992629;28;20246;-70
2022/08/22 02:25:07;;;;;;;25.90;6.47;;;19.90;99.90;;;;;;4992261;28;20319;-71
2022/08/22 02:27:44;;;;;;;24.67;5.23;;;19.90;99.90;;;;;;4989596;28;20215;-72
2022/08/22 02:30:14;;;;;;;34.20;6.20;;;19.80;99.90;;;;;;4992356;28;20618;-70
2022/08/22 02:32:52;;;;;;;32.07;6.70;;;19.90;99.90;;;;;;4992505;28;20231;-70
2022/08/22 02:35:25;;;;;;;24.43;5.20;;;19.90;99.90;;;;;;4993420;28;20725;-69
2022/08/22 02:38:03;;;;;;;20.93;5.20;;;19.90;99.90;;;;;;4995970;28;20242;-71
2022/08/22 02:40:38;;;;;;;25.47;5.23;;;19.90;99.90;;;;;;4996481;28;20280;-71
2022/08/22 02:43:14;;;;;;;22.07;5.27;;;19.80;99.90;;;;;;4992992;28;20206;-70
2022/08/22 02:45:51;;;;;;;18.97;5.33;;;19.80;99.90;;;;;;4996118;28;20284;-70
2022/08/22 02:48:31;;;;;;;22.33;6.33;;;19.80;99.90;;;;;;4996565;28;20613;-69
2022/08/22 02:51:05;;;;;;;18.87;5.30;;;19.80;99.90;;;;;;4995410;28;20273;-69
2022/08/22 02:53:38;;;;;;;16.00;5.60;;;19.90;99.90;;;;;;4996072;28;20536;-70
2022/08/22 02:56:12;;;;;;;18.97;5.13;;;19.90;99.90;;;;;;4993445;28;20332;-71
2022/08/22 02:58:48;;;;;;;18.90;5.47;;;19.90;99.90;;;;;;4995752;28;20705;-69
2022/08/22 03:01:23;;;;;;;18.93;5.37;;;19.80;99.90;;;;;;4995441;28;20187;-69
2022/08/22 03:03:52;;;;;;;21.47;5.70;;;19.90;99.90;;;;;;4991455;28;20309;-69
2022/08/22 03:06:40;;;;;;;18.93;5.47;;;19.80;99.90;;;;;;4996209;28;20299;-69
2022/08/22 03:09:23;;;;;;;13.57;4.73;;;19.90;99.90;;;;;;4995800;28;20199;-69
2022/08/22 03:12:03;;;;;;;29.23;5.63;;;19.90;99.90;;;;;;4988152;28;20708;-70
2022/08/22 03:14:35;;;;;;;16.00;5.20;;;19.90;99.90;;;;;;4994216;28;20294;-69
2022/08/22 03:17:07;;;;;;;26.03;5.30;;;19.80;99.90;;;;;;4995154;28;20201;-70
2022/08/22 03:19:49;;;;;;;21.70;4.87;;;19.80;99.90;;;;;;4995246;28;20286;-69
2022/08/22 03:22:22;;;;;;;26.67;6.63;;;19.80;99.90;;;;;;4989028;28;20209;-69
2022/08/22 03:24:54;;;;;;;18.80;5.10;;;19.80;99.90;;;;;;4995066;28;20192;-69
2022/08/22 03:27:27;;;;;;;22.67;5.97;;;19.80;99.90;;;;;;4995094;28;20192;-69
2022/08/22 03:30:00;;;;;;;21.00;5.93;;;19.80;99.90;;;;;;4994020;28;20649;-69
2022/08/22 03:32:53;;;;;;;13.43;4.63;;;19.80;99.90;;;;;;4993705;28;20298;-70
2022/08/22 03:35:29;;;;;;;25.07;5.20;;;19.80;99.90;;;;;;4992596;28;20209;-70
2022/08/22 03:38:08;;;;;;;23.97;5.30;;;19.80;99.90;;;;;;4991810;28;20239;-70
2022/08/22 03:40:52;;;;;;;20.80;4.90;;;19.80;99.90;;;;;;4994509;28;20296;-69
2022/08/22 03:43:38;;;;;;;15.00;5.00;;;19.80;99.90;;;;;;4975662;28;20296;-69
2022/08/22 03:46:53;;;;;;;18.73;5.37;;;19.80;99.90;;;;;;4977727;28;20292;-69
2022/08/22 03:50:11;;;;;;;22.40;6.83;;;19.80;99.90;;;;;;4991330;28;20318;-70
2022/08/22 03:53:07;;;;;;;23.67;5.87;;;19.80;99.90;;;;;;4994910;28;20283;-70
2022/08/22 03:55:51;;;;;;;21.17;6.23;;;19.80;99.90;;;;;;4994574;28;20286;-70
2022/08/22 03:58:39;;;;;;;20.47;5.60;;;19.90;99.90;;;;;;4989950;28;20204;-69
2022/08/22 04:01:33;;;;;;;20.00;5.73;;;19.90;99.90;;;;;;4994488;28;20188;-70
2022/08/22 04:04:43;;;;;;;18.40;5.43;;;19.90;99.90;;;;;;4994311;28;20286;-71
2022/08/22 04:07:51;;;;;;;20.60;5.60;;;19.90;99.90;;;;;;4920885;28;20214;-70
2022/08/22 04:10:50;;;;;;;20.50;5.43;;;19.90;99.90;;;;;;4994923;28;20316;-71
2022/08/22 04:13:49;;;;;;;24.97;6.37;;;20.00;99.90;;;;;;4994578;28;20191;-70
2022/08/22 04:16:52;;;;;;;18.23;5.50;;;20.10;99.90;;;;;;4993852;28;20214;-70
2022/08/22 04:19:40;;;;;;;20.43;5.17;;;20.10;99.90;;;;;;4992880;28;20676;-70
2022/08/22 04:22:33;;;;;;;19.20;4.70;;;20.20;99.90;;;;;;4994901;28;20698;-70
2022/08/22 04:25:04;;;;;;;17.33;4.60;;;20.20;99.90;;;;;;4994246;28;20198;-71
2022/08/22 04:27:37;;;;;;;23.40;7.33;;;20.30;99.90;;;;;;4991722;28;20289;-70
2022/08/22 04:30:22;;;;;;;20.90;5.43;;;20.30;99.90;;;;;;4994439;28;20283;-72
2022/08/22 04:32:54;;;;;;;27.07;6.07;;;20.40;99.90;;;;;;4993672;28;20205;-71
2022/08/22 04:35:31;;;;;;;20.67;5.17;;;20.40;99.90;;;;;;4993988;28;20283;-71
2022/08/22 04:38:04;;;;;;;19.27;4.50;;;20.40;99.90;;;;;;4992896;28;20310;-71
2022/08/22 04:40:36;;;;;;;17.23;6.53;;;20.50;99.90;;;;;;4994136;28;20733;-72
2022/08/22 04:43:10;;;;;;;20.40;6.47;;;20.60;99.90;;;;;;4994186;28;20718;-70
2022/08/22 04:45:46;;;;;;;22.13;5.13;;;20.60;99.90;;;;;;4992520;28;20211;-70
2022/08/22 04:48:20;;;;;;;19.47;5.47;;;20.60;99.90;;;;;;4993982;28;20554;-69
2022/08/22 04:50:53;;;;;;;13.50;5.20;;;20.60;99.90;;;;;;4993605;28;20270;-70
2022/08/22 04:53:46;;;;;;;16.47;5.10;;;20.70;99.90;;;;;;4993893;28;20274;-70
2022/08/22 04:56:20;;;;;;;15.47;4.20;;;20.80;99.90;;;;;;4992422;28;20206;-70
2022/08/22 04:58:49;;;;;;;15.77;4.00;;;20.80;99.90;;;;;;4992961;28;20194;-72
2022/08/22 05:01:21;;;;;;;17.80;3.90;;;20.80;99.90;;;;;;4993508;28;20298;-70
2022/08/22 05:03:54;;;;;;;16.83;4.57;;;20.80;99.90;;;;;;4992150;28;20282;-69
2022/08/22 05:06:27;;;;;;;18.40;5.07;;;20.90;99.90;;;;;;4992353;28;20214;-72
2022/08/22 05:08:58;;;;;;;20.60;4.60;;;20.90;99.90;;;;;;4988820;28;20209;-71
2022/08/22 05:11:26;;;;;;;21.83;6.87;;;21.00;99.90;;;;;;4992041;28;20638;-70
2022/08/22 05:13:57;;;;;;;23.03;7.23;;;21.10;99.90;;;;;;4991449;28;20250;-70
2022/08/22 05:16:29;;;;;;;21.50;5.30;;;21.20;99.90;;;;;;4985386;28;20306;-69
2022/08/22 05:19:01;;;;;;;16.57;4.47;;;21.30;99.90;;;;;;4989902;28;20219;-70
2022/08/22 05:21:33;;;;;;;19.77;5.90;;;21.40;99.90;;;;;;4991746;28;20236;-70
2022/08/22 05:24:04;;;;;;;27.37;9.77;;;21.40;99.90;;;;;;4989988;28;20220;-70
2022/08/22 05:26:37;;;;;;;20.40;4.73;;;21.50;99.90;;;;;;4991063;28;20212;-71
2022/08/22 05:29:08;;;;;;;48.93;6.30;;;21.50;99.90;;;;;;4988683;28;20576;-70
2022/08/22 05:31:41;;;;;;;23.50;5.40;;;21.60;99.90;;;;;;4991973;28;20227;-69
2022/08/22 05:34:13;;;;;;;19.77;4.20;;;21.70;99.90;;;;;;4993000;28;20297;-70
2022/08/22 05:36:45;;;;;;;14.57;4.33;;;21.80;99.90;;;;;;4989452;28;20265;-70
2022/08/22 05:39:15;;;;;;;14.60;4.30;;;21.80;99.90;;;;;;4988813;28;20554;-70
2022/08/22 05:41:43;;;;;;;14.97;3.90;;;21.90;99.90;;;;;;4991361;28;20195;-70
2022/08/22 05:44:20;;;;;;;15.33;4.23;;;21.90;99.90;;;;;;4991258;28;20215;-70
2022/08/22 05:46:52;;;;;;;23.47;4.53;;;21.90;99.90;;;;;;4984791;28;20291;-72
2022/08/22 05:49:22;;;;;;;19.13;4.37;;;22.00;99.90;;;;;;4991986;28;20623;-70
2022/08/22 05:51:59;;;;;;;21.90;5.13;;;22.00;99.90;;;;;;4991651;28;20744;-72
2022/08/22 05:54:32;;;;;;;15.43;4.20;;;22.00;99.90;;;;;;4992524;28;20195;-71
2022/08/22 05:57:08;;;;;;;20.03;4.23;;;22.00;99.90;;;;;;4992807;28;20602;-70
2022/08/22 05:59:40;;;;;;;17.20;3.93;;;22.10;99.90;;;;;;4992326;28;20242;-71
2022/08/22 06:02:14;;;;;;;17.27;4.40;;;22.00;99.90;;;;;;4990157;28;20563;-71
2022/08/22 06:04:53;;;;;;;19.43;4.20;;;22.00;99.90;;;;;;4995843;28;20225;-70
2022/08/22 06:07:25;;;;;;;23.00;6.10;;;22.10;99.90;;;;;;4996645;28;20645;-70
2022/08/22 06:10:05;;;;;;;17.37;4.63;;;22.10;99.90;;;;;;4992099;28;20227;-71
2022/08/22 06:12:37;;;;;;;14.90;4.37;;;22.10;99.90;;;;;;4977137;28;20693;-71
2022/08/22 06:15:13;;;;;;;22.03;4.50;;;22.20;99.90;;;;;;4977161;28;20268;-71
2022/08/22 06:17:44;;;;;;;16.90;4.13;;;22.20;99.90;;;;;;4976963;28;20276;-70
2022/08/22 06:20:18;;;;;;;18.53;4.03;;;22.20;99.90;;;;;;4989529;28;20287;-71
2022/08/22 06:22:51;;;;;;;23.60;4.53;;;22.20;99.90;;;;;;5000670;28;20204;-71
2022/08/22 06:25:22;;;;;;;18.27;4.30;;;22.20;99.90;;;;;;4996431;28;20206;-71
2022/08/22 06:27:50;;;;;;;15.03;4.17;;;22.20;99.90;;;;;;5014681;28;20295;-72
2022/08/22 06:30:18;;;;;;;17.23;4.53;;;22.30;99.90;;;;;;5016082;28;20610;-70
2022/08/22 06:32:51;;;;;;;14.90;3.90;;;22.40;99.90;;;;;;4991272;28;20582;-71
2022/08/22 06:35:22;;;;;;;17.97;4.00;;;22.40;99.90;;;;;;5006607;28;20217;-71
2022/08/22 06:37:52;;;;;;;19.53;4.77;;;22.50;99.90;;;;;;5015863;28;20305;-71
2022/08/22 06:40:19;;;;;;;23.37;4.73;;;22.50;99.90;;;;;;4996409;28;20288;-71
2022/08/22 06:42:49;;;;;;;25.93;5.37;;;22.50;99.90;;;;;;4997799;28;20214;-71
2022/08/22 06:45:20;;;;;;;31.27;7.27;;;22.60;99.90;;;;;;5015154;28;20294;-71
2022/08/22 06:47:54;;;;;;;19.57;5.23;;;22.70;99.90;;;;;;5015479;28;20188;-72
2022/08/22 06:50:29;;;;;;;18.57;5.07;;;22.80;99.90;;;;;;5013250;28;20250;-73
2022/08/22 06:53:00;;;;;;;18.07;4.50;;;22.90;99.90;;;;;;4995896;28;20201;-72
2022/08/22 06:55:29;;;;;;;25.83;4.10;;;22.90;99.90;;;;;;4996062;28;20650;-71
2022/08/22 06:58:02;;;;;;;28.13;5.20;;;23.00;99.90;;;;;;4996237;28;20295;-70
2022/08/22 07:00:31;;;;;;;28.63;5.03;;;23.10;99.90;;;;;;4997979;28;20265;-70
2022/08/22 07:03:07;;;;;;;20.67;4.77;;;23.10;99.90;;;;;;4991530;28;20234;-70
2022/08/22 07:05:37;;;;;;;22.20;4.53;;;23.20;99.90;;;;;;4991297;28;20720;-70
2022/08/22 07:08:07;;;;;;;16.80;4.07;;;23.30;99.90;;;;;;4990127;28;20211;-71
2022/08/22 07:10:35;;;;;;;20.90;4.67;;;23.40;99.90;;;;;;4995477;28;20700;-71
2022/08/22 07:13:03;;;;;;;20.30;4.40;;;23.50;99.90;;;;;;4995829;28;20551;-70
2022/08/22 07:15:34;;;;;;;18.50;3.80;;;23.60;99.90;;;;;;4994415;28;20655;-72
2022/08/22 07:18:05;;;;;;;19.33;4.00;;;23.60;99.90;;;;;;4995658;28;20646;-71
2022/08/22 07:20:37;;;;;;;11.87;3.60;;;23.70;99.90;;;;;;4995011;28;20191;-71
2022/08/22 07:23:08;;;;;;;17.13;4.20;;;23.80;99.90;;;;;;4994744;28;20279;-72
2022/08/22 07:25:50;;;;;;;15.20;3.77;;;23.90;99.90;;;;;;4988151;28;20210;-73
2022/08/22 07:28:26;;;;;;;15.93;3.80;;;24.10;99.90;;;;;;4995184;28;20655;-72
2022/08/22 07:30:57;;;;;;;18.67;4.37;;;24.20;99.90;;;;;;4990665;28;20203;-72
2022/08/22 07:33:41;;;;;;;15.90;4.50;;;24.30;99.90;;;;;;4986972;28;20285;-70
2022/08/22 07:36:22;;;;;;;22.53;4.73;;;24.40;99.90;;;;;;4992698;28;20248;-73
2022/08/22 07:39:08;;;;;;;13.63;4.60;;;24.50;99.90;;;;;;4993597;28;20333;-73
2022/08/22 07:41:52;;;;;;;15.77;4.73;;;24.60;99.90;;;;;;4995112;28;20211;-72
2022/08/22 07:44:25;;;;;;;19.08;4.75;;;24.70;99.90;;;;;;4995540;28;20191;-73
2022/08/22 07:46:57;;;;;;;23.75;4.95;;;24.70;99.90;;;;;;4995320;28;20658;-73
2022/08/22 07:49:30;;;;;;;23.73;3.90;;;24.80;99.90;;;;;;4993758;28;20227;-72
2022/08/22 07:52:01;;;;;;;18.90;4.30;;;24.90;99.90;;;;;;4992773;28;20211;-72
2022/08/22 07:54:36;;;;;;;16.25;3.38;;;25.00;99.90;;;;;;4994654;28;20245;-70
2022/08/22 07:57:06;;;;;;;19.88;3.65;;;25.00;99.90;;;;;;4994559;28;20232;-72
2022/08/22 07:59:35;;;;;;;59.40;8.82;;;25.10;99.90;;;;;;4975572;28;20234;-72
2022/08/22 08:02:07;;;;;;;39.95;5.18;;;25.10;99.90;;;;;;4988214;28;20653;-71
2022/08/22 08:04:37;;;;;;;13.48;3.10;;;25.20;99.90;;;;;;4988828;28;20292;-71
2022/08/22 08:07:08;;;;;;;14.70;3.55;;;25.30;99.90;;;;;;4993385;28;20201;-71
2022/08/22 08:09:40;;;;;;;14.52;3.67;;;25.40;99.90;;;;;;4990054;28;20237;-73
2022/08/22 08:12:10;;;;;;;48.78;6.22;;;25.40;99.90;;;;;;4983980;28;20210;-72
2022/08/22 08:14:40;;;;;;;94.22;12.10;;;25.40;99.90;;;;;;5005838;28;20208;-71
2022/08/22 08:17:13;;;;;;;24.63;3.83;;;25.50;99.90;;;;;;4991916;28;20272;-71
2022/08/22 08:19:43;;;;;;;14.02;3.65;;;25.60;99.90;;;;;;4995492;28;20300;-71
2022/08/22 08:22:17;;;;;;;65.50;7.55;;;25.60;99.90;;;;;;5013860;28;20206;-70
2022/08/22 08:24:44;;;;;;;17.45;3.40;;;25.70;99.90;;;;;;5004794;28;20677;-72
2022/08/22 08:30:02;;;;;;;17.98;3.45;;;25.70;99.90;;;;;;5013803;28;20195;-72
2022/08/22 08:32:33;;;;;;;64.68;8.38;;;25.70;99.90;;;;;;5003149;28;20728;-71
2022/08/22 08:35:11;;;;;;;33.45;4.65;;;25.80;99.90;;;;;;4990047;28;20203;-71
2022/08/22 08:37:44;;;;;;;20.58;3.72;;;25.80;99.90;;;;;;4990420;28;20236;-71
2022/08/22 08:40:24;;;;;;;21.23;3.40;;;25.80;99.90;;;;;;4984964;28;20571;-71
2022/08/22 08:46:10;;;;;;;22.58;3.72;;;25.90;99.90;;;;;;4987456;28;20205;-70
2022/08/22 08:49:03;;;;;;;23.25;4.18;;;25.90;99.90;;;;;;5003321;28;20269;-72
2022/08/22 08:51:55;;;;;;;22.67;3.92;;;26.00;99.90;;;;;;5000594;28;20243;-71
2022/08/22 08:54:42;;;;;;;87.82;10.52;;;26.00;99.90;;;;;;5012156;28;20284;-70
2022/08/22 08:57:18;;;;;;;30.48;4.65;;;26.00;99.90;;;;;;5007117;28;20256;-72
2022/08/22 09:00:00;;;;;;;20.75;3.55;;;26.10;99.90;;;;;;4994176;28;20263;-72
2022/08/22 09:02:48;;;;;;;20.35;3.50;;;26.10;99.90;;;;;;4993861;28;20201;-72
2022/08/22 09:05:48;;;;;;;104.78;11.52;;;26.10;99.90;;;;;;4993980;28;20201;-72
2022/08/22 09:08:41;;;;;;;27.02;5.45;;;26.20;99.90;;;;;;4992640;28;20303;-71
2022/08/22 09:11:45;;;;;;;24.17;4.18;;;26.20;99.90;;;;;;4982655;28;20583;-69
2022/08/22 09:14:25;;;;;;;22.45;3.92;;;26.20;99.90;;;;;;5002653;28;20258;-69
2022/08/22 09:17:19;;;;;;;25.75;3.47;;;26.30;99.90;;;;;;4979492;28;20286;-67
2022/08/22 09:20:30;;;;;;;19.02;3.80;;;26.30;99.90;;;;;;4990473;28;20211;-69
2022/08/22 09:23:51;;;;;;;25.25;3.80;;;26.30;99.90;;;;;;4946928;28;20318;-69
2022/08/22 09:26:27;;;;;;;14.55;3.20;;;26.40;99.90;;;;;;4913897;29;20223;-68
2022/08/22 09:29:00;;;;;;;17.92;4.10;;;26.40;99.90;;;;;;4978183;28;20231;-68
2022/08/22 09:31:41;;;;;;;15.65;3.63;;;26.40;99.90;;;;;;4993536;28;20704;-70
2022/08/22 09:34:13;;;;;;;20.10;3.60;;;26.40;99.90;;;;;;4993732;28;20188;-68
2022/08/22 09:37:03;;;;;;;22.85;3.90;;;26.40;99.90;;;;;;4993914;28;20278;-71
2022/08/22 09:39:36;;;;;;;16.60;3.60;;;26.50;99.90;;;;;;4993591;28;20294;-72
2022/08/22 09:42:18;;;;;;;20.27;3.75;;;26.50;99.90;;;;;;4993279;28;20252;-69
2022/08/22 09:44:55;;;;;;;18.40;3.70;;;26.50;99.90;;;;;;4991935;28;20199;-68
2022/08/22 09:47:29;;;;;;;15.85;3.75;;;26.50;99.90;;;;;;4992562;28;20278;-67
2022/08/22 09:50:11;;;;;;;15.38;3.47;;;26.50;99.90;;;;;;4992421;28;20246;-68
2022/08/22 09:53:01;;;;;;;25.65;4.13;;;26.60;99.90;;;;;;4992386;28;20263;-68
2022/08/22 09:55:40;;;;;;;45.38;7.95;;;26.60;99.90;;;;;;4992565;28;20193;-68
2022/08/22 09:58:30;;;;;;;22.90;3.88;;;26.60;99.90;;;;;;4992591;28;20249;-69
2022/08/22 10:01:00;;;;;;;17.90;4.60;;;26.60;99.90;;;;;;4992137;28;20248;-69
2022/08/22 10:03:53;;;;;;;318.60;35.38;;;26.70;99.90;;;;;;4992496;28;20285;-68
2022/08/22 10:06:26;;;;;;;29.23;4.82;;;26.80;99.90;;;;;;4992374;28;20578;-69
2022/08/22 10:09:03;;;;;;;25.35;4.30;;;26.80;99.90;;;;;;4992202;28;20192;-68
2022/08/22 10:11:35;;;;;;;35.00;5.50;;;26.90;99.90;;;;;;4992634;28;20196;-68
2022/08/22 10:14:08;;;;;;;26.60;5.20;;;26.90;99.90;;;;;;4992622;28;20212;-69
2022/08/22 10:16:58;;;;;;;18.67;3.80;;;27.00;99.90;;;;;;4992660;28;20281;-69
2022/08/22 10:19:31;;;;;;;25.83;4.22;;;27.20;99.90;;;;;;4992239;28;20280;-68
2022/08/22 10:22:19;;;;;;;29.10;4.15;;;27.20;99.90;;;;;;4992443;28;20563;-70
2022/08/22 10:24:55;;;;;;;20.42;4.00;;;27.30;99.90;;;;;;4992541;28;20204;-70
2022/08/22 10:27:37;;;;;;;22.80;4.60;;;27.30;99.90;;;;;;4992380;28;20234;-69
2022/08/22 10:30:10;;;;;;;23.27;4.88;;;27.40;99.90;;;;;;4992247;28;20231;-69
2022/08/22 10:32:43;;;;;;;18.45;3.90;;;27.40;99.90;;;;;;4992419;28;20271;-67
2022/08/22 10:35:29;;;;;;;15.63;4.18;;;27.50;99.90;;;;;;4992446;28;20224;-69
2022/08/22 10:38:00;;;;;;;34.67;5.38;;;27.60;99.90;;;;;;4991836;28;20197;-69
2022/08/22 10:40:32;;;;;;;35.70;6.05;;;27.60;99.90;;;;;;4992521;28;20225;-71
2022/08/22 10:43:02;;;;;;;63.40;7.20;;;27.70;99.90;;;;;;4992555;28;20636;-68
2022/08/22 10:45:36;;;;;;;56.00;6.90;;;27.70;99.90;;;;;;4992285;28;20250;-68
2022/08/22 10:48:33;;;;;;;68.55;7.18;;;27.80;99.90;;;;;;4992062;28;20197;-68
2022/08/22 10:51:15;;;;;;;54.08;6.47;;;27.80;99.90;;;;;;4992186;28;20284;-69
2022/08/22 10:54:22;;;;;;;54.20;7.53;;;27.80;99.90;;;;;;4992048;28;20279;-68
2022/08/22 10:56:56;;;;;;;64.75;8.05;;;27.80;99.90;;;;;;4993217;28;20751;-69
2022/08/22 10:59:33;;;;;;;42.47;6.28;;;27.90;99.90;;;;;;4995468;28;20197;-69
2022/08/22 11:02:20;;;;;;;51.83;7.15;;;27.90;99.90;;;;;;4995620;28;20566;-68
2022/08/22 11:05:08;;;;;;;54.25;7.45;;;28.00;99.90;;;;;;4995557;28;20288;-68
2022/08/22 11:07:46;;;;;;;49.38;6.00;;;28.00;99.90;;;;;;4995473;28;20284;-68
2022/08/22 11:10:24;;;;;;;48.55;6.32;;;28.00;99.90;;;;;;4995758;28;20703;-69
2022/08/22 11:13:05;;;;;;;43.67;6.93;;;28.10;99.90;;;;;;4995320;28;20304;-73
2022/08/22 11:15:54;;;;;;;100.18;9.38;;;28.10;99.90;;;;;;4995580;28;20587;-72
2022/08/22 11:18:34;;;;;;;69.60;7.50;;;28.10;99.90;;;;;;4989109;28;20244;-68
2022/08/22 11:21:05;;;;;;;41.05;6.50;;;28.10;99.90;;;;;;4995355;28;20284;-70
2022/08/22 11:23:41;;;;;;;44.63;7.30;;;28.10;99.90;;;;;;4995235;28;20228;-69
2022/08/22 11:26:24;;;;;;;72.97;8.10;;;28.10;99.90;;;;;;4995437;28;20635;-70
2022/08/22 11:29:16;;;;;;;49.20;5.70;;;28.10;99.90;;;;;;4994931;28;20260;-70
2022/08/22 11:31:49;;;;;;;38.63;5.82;;;28.10;99.90;;;;;;4978373;28;20296;-69
2022/08/22 11:34:31;;;;;;;35.85;6.00;;;28.10;99.90;;;;;;4994810;28;20248;-68
2022/08/22 11:37:05;;;;;;;42.22;6.30;;;28.10;99.90;;;;;;4995102;28;20289;-69
2022/08/22 11:39:37;;;;;;;50.05;7.57;;;28.10;99.90;;;;;;4995108;28;20711;-69
2022/08/22 11:42:08;;;;;;;42.35;6.43;;;28.10;99.90;;;;;;4995037;28;20296;-69
2022/08/22 11:44:41;;;;;;;51.42;6.38;;;28.20;99.90;;;;;;4994827;28;20713;-69
2022/08/22 11:47:13;;;;;;;60.15;7.47;;;28.20;99.90;;;;;;4995082;28;20581;-69
2022/08/22 11:49:52;;;;;;;42.70;6.25;;;28.20;99.90;;;;;;4994895;28;20296;-68
2022/08/22 11:52:25;;;;;;;44.60;6.30;;;28.20;99.90;;;;;;4994831;28;20702;-70
2022/08/22 11:55:27;;;;;;;55.08;7.05;;;28.20;99.90;;;;;;4994892;28;20621;-67
2022/08/22 11:57:58;;;;;;;52.30;6.80;;;28.20;99.90;;;;;;4948217;28;20741;-70
2022/08/22 12:00:32;;;;;;;50.38;7.38;;;28.20;99.90;;;;;;4994503;28;20198;-71
2022/08/22 12:03:31;;;;;;;47.15;5.88;;;28.30;99.90;;;;;;4994520;28;20204;-69
2022/08/22 12:06:06;;;;;;;56.20;6.82;;;28.30;99.90;;;;;;4994186;28;20202;-68
2022/08/22 12:09:06;;;;;;;71.60;7.82;;;28.30;99.90;;;;;;4993518;28;20716;-69
2022/08/22 12:11:43;;;;;;;43.00;6.55;;;28.30;99.90;;;;;;4994553;28;20655;-69
2022/08/22 12:14:19;;;;;;;55.08;6.93;;;28.40;99.90;;;;;;4994139;28;20216;-69
2022/08/22 12:16:58;;;;;;;82.15;10.00;;;28.40;99.90;;;;;;4994297;28;20289;-68
2022/08/22 12:19:31;;;;;;;51.03;7.15;;;28.40;99.90;;;;;;4994425;28;20344;-69
2022/08/22 12:22:33;;;;;;;74.82;7.65;;;28.40;99.90;;;;;;4994293;28;20291;-70
2022/08/22 12:25:11;;;;;;;62.08;9.75;;;28.40;99.90;;;;;;4993966;28;20230;-68
2022/08/22 12:27:57;;;;;;;48.45;7.60;;;28.40;99.90;;;;;;4994080;28;20630;-67
2022/08/22 12:30:33;;;;;;;66.35;8.07;;;28.40;99.90;;;;;;4994393;28;20193;-70
2022/08/22 12:33:36;;;;;;;57.97;8.63;;;28.40;99.90;;;;;;4994303;28;20312;-69
2022/08/22 12:36:19;;;;;;;70.75;8.10;;;28.50;99.90;;;;;;4993725;28;20202;-71
2022/08/22 12:39:06;;;;;;;56.35;7.72;;;28.50;99.90;;;;;;4993590;28;20245;-68
2022/08/22 12:41:42;;;;;;;48.33;7.53;;;28.50;99.90;;;;;;4993954;28;20229;-68
2022/08/22 12:44:24;;;;;;;73.25;8.90;;;28.60;99.90;;;;;;4993977;28;20190;-68
2022/08/22 12:47:04;;;;;;;45.05;8.15;;;28.70;99.90;;;;;;4993685;28;20648;-68
2022/08/22 12:49:43;;;;;;;79.28;9.35;;;28.70;99.90;;;;;;4993538;28;20285;-68
2022/08/22 12:52:23;;;;;;;59.03;8.20;;;28.70;99.90;;;;;;4993464;28;20286;-69
2022/08/22 12:55:22;;;;;;;85.95;9.40;;;28.70;99.90;;;;;;4993687;28;20688;-70
2022/08/22 12:57:58;;;;;;;64.93;9.38;;;28.70;99.90;;;;;;4993690;28;20237;-70
2022/08/22 13:00:31;;;;;;;56.33;8.52;;;28.70;99.90;;;;;;4993258;28;20289;-69
2022/08/22 13:03:02;;;;;;;62.70;8.30;;;28.70;99.90;;;;;;4993625;28;20545;-71
2022/08/22 13:05:31;;;;;;;53.10;8.45;;;28.70;99.90;;;;;;4993206;28;20282;-70
2022/08/22 13:08:02;;;;;;;61.92;9.00;;;28.70;99.90;;;;;;4993532;28;20294;-70
2022/08/22 13:10:39;;;;;;;65.00;8.02;;;28.80;99.90;;;;;;4993370;28;20626;-70
2022/08/22 13:13:07;;;;;;;58.85;8.55;;;28.80;99.90;;;;;;4993562;28;20413;-68
2022/08/22 13:15:37;;;;;;;47.72;7.22;;;28.70;99.90;;;;;;4993403;28;20210;-69
2022/08/22 13:18:07;;;;;;;67.43;8.77;;;28.70;99.90;;;;;;4993024;28;20245;-69
2022/08/22 13:20:38;;;;;;;64.80;8.23;;;28.70;99.90;;;;;;4993235;28;20278;-70
2022/08/22 13:23:13;;;;;;;54.97;8.82;;;28.70;99.90;;;;;;4993273;28;20632;-69
2022/08/22 13:26:03;;;;;;;64.30;8.85;;;28.70;99.90;;;;;;4992856;28;20657;-69
2022/08/22 13:28:33;;;;;;;131.43;15.93;;;28.70;99.90;;;;;;4993102;28;20719;-69
2022/08/22 13:31:02;;;;;;;151.00;15.43;;;28.70;99.90;;;;;;4993035;28;20687;-68
2022/08/22 13:33:32;;;;;;;79.82;9.73;;;28.60;99.90;;;;;;4992610;28;20240;-71
2022/08/22 13:36:02;;;;;;;52.75;7.07;;;28.60;99.90;;;;;;4993261;28;20655;-74
2022/08/22 13:38:33;;;;;;;69.47;8.88;;;28.60;99.90;;;;;;4992959;28;20349;-70
2022/08/22 13:41:03;;;;;;;113.45;12.30;;;28.60;99.60;;;;;;4993040;28;20240;-68
2022/08/22 13:43:34;;;;;;;77.65;10.02;;;28.50;99.30;;;;;;4992741;28;20573;-70